Portada
METAR-TAF:

METAR-TAF

Aeroports :

Aurora, Illinois, Estats Units d'Amèrica

latitud: 41-46-12N, longitud: 088-28-53W, altitud: 215 m

Observació

L'informe es va fer fa 56 minuts, a les 02:52 UTC
Vent 6 kt del Sud
Temperatura 27°C
Humitat 84%
Pressió 1015 hPa
Visibilitat: 14.5 km
Cel clar

METAR: KARR 180252Z 18006KT 9SM CLR 27/24 A2998 RMK AO2 SLP144 T02720239 53010

Hora: 22:48 (03:48 UTC)


TAF: manca

Observacions i pronòstics meteorològics de més de 4000 aeroports (METAR i TAF).

Les estacions disponibles són els punts grocs i vermells al mapa.

Posi el ratolí al punt desitjat per veure el nom de l'estació.

Feu clic per veure les observacions i els pronòstics meteorològics.

Per canviar el mapa: feu clic els botons verds amb una creu de color negre per apropar; al botó verd amb un guió per allunyar la imatge; o en les fletxes verdes per a mapes adjacents.


METAR-TAF: